Time;durP1;ratioP1;P1;durP2;ratioP2;P2;SDS_P1;SDS_P2;PMS_P1;PMS_P2;Temp;Humidity;BMP_temperature;BMP_pressure;BME280_temperature;BME280_humidity;BME280_pressure;Samples;Min_cycle;Max_cycle;Signal;HPM_P1;HPM_P2
2022/12/24 00:02:17;;;;;;;15.30;2.53;;;;;;;11.15;100.00;98224.09;4907853;29;20228;-79
2022/12/24 00:04:45;;;;;;;11.97;2.00;;;;;;;11.07;100.00;98229.19;4910271;29;20202;-79
2022/12/24 00:07:16;;;;;;;13.27;2.73;;;;;;;10.97;100.00;98233.53;4893084;29;20643;-79
2022/12/24 00:09:44;;;;;;;10.50;2.57;;;;;;;11.04;100.00;98232.94;4801155;29;20213;-79
2022/12/24 00:12:18;;;;;;;7.00;2.20;;;;;;;11.15;100.00;98226.75;4762821;30;20211;-80
2022/12/24 00:14:46;;;;;;;12.03;2.40;;;;;;;10.99;100.00;98228.94;4748842;30;20239;-80
2022/12/24 00:17:15;;;;;;;12.47;2.23;;;;;;;11.03;100.00;98223.28;4747455;30;20689;-79
2022/12/24 00:19:44;;;;;;;10.93;2.00;;;;;;;11.08;100.00;98229.03;4749758;30;20261;-80
2022/12/24 00:22:15;;;;;;;10.53;2.50;;;;;;;11.08;100.00;98241.47;4748132;30;20263;-79
2022/12/24 00:24:46;;;;;;;10.60;2.80;;;;;;;11.01;100.00;98227.88;4748322;30;20215;-79
2022/12/24 00:27:18;;;;;;;11.23;2.10;;;;;;;11.04;100.00;98238.22;4807280;29;20282;-80
2022/12/24 00:29:46;;;;;;;12.03;2.67;;;;;;;10.98;100.00;98244.00;4919950;28;20247;-80
2022/12/24 00:32:14;;;;;;;8.77;2.30;;;;;;;11.08;100.00;98246.75;4969870;28;20206;-79
2022/12/24 00:34:50;;;;;;;8.43;2.33;;;;;;;10.99;100.00;98255.44;4931942;29;20307;-80
2022/12/24 00:37:19;;;;;;;9.53;2.07;;;;;;;11.01;100.00;98254.38;4873115;29;20215;-79
2022/12/24 00:39:50;;;;;;;9.53;2.43;;;;;;;10.87;100.00;98252.81;4870650;29;20214;-80
2022/12/24 00:42:19;;;;;;;8.97;2.40;;;;;;;10.89;100.00;98256.19;4870151;29;20263;-79
2022/12/24 00:44:48;;;;;;;9.00;2.33;;;;;;;10.87;100.00;98270.53;4870562;29;20215;-80
2022/12/24 00:47:17;;;;;;;6.50;2.07;;;;;;;10.91;100.00;98268.50;4879955;29;20205;-80
2022/12/24 00:49:51;;;;;;;7.97;1.70;;;;;;;10.83;100.00;98272.56;4903967;29;20201;-80
2022/12/24 00:52:21;;;;;;;10.50;2.20;;;;;;;10.92;100.00;98280.75;4928330;28;20357;-81
2022/12/24 00:54:55;;;;;;;7.47;1.80;;;;;;;10.80;100.00;98294.00;4990089;28;20202;-80
2022/12/24 00:57:26;;;;;;;8.53;1.93;;;;;;;10.98;100.00;98290.84;4985629;28;20203;-80
2022/12/24 00:59:55;;;;;;;9.20;1.90;;;;;;;10.78;100.00;98295.94;4988881;28;20207;-80
2022/12/24 01:02:24;;;;;;;7.77;1.80;;;;;;;10.85;100.00;98283.88;5041956;28;20189;-80
2022/12/24 01:05:14;;;;;;;9.33;2.53;;;;;;;10.89;100.00;98280.03;5070279;28;20192;-80
2022/12/24 01:07:43;;;;;;;6.03;1.47;;;;;;;10.98;100.00;98293.50;5072212;28;20204;-80
2022/12/24 01:10:17;;;;;;;11.17;2.27;;;;;;;10.78;100.00;98290.63;5068055;28;20204;-80
2022/12/24 01:12:47;;;;;;;8.47;1.80;;;;;;;10.84;100.00;98307.84;5070709;28;20204;-80
2022/12/24 01:15:16;;;;;;;11.13;2.40;;;;;;;10.78;100.00;98317.13;5069497;28;20224;-80
2022/12/24 01:17:47;;;;;;;7.90;2.03;;;;;;;10.68;100.00;98307.38;5068304;28;20188;-80
2022/12/24 01:20:17;;;;;;;10.63;2.40;;;;;;;10.71;100.00;98315.06;5067958;28;20203;-80
2022/12/24 01:22:48;;;;;;;10.80;2.53;;;;;;;10.75;100.00;98324.47;5072441;28;20211;-80
2022/12/24 01:25:19;;;;;;;12.37;2.40;;;;;;;10.76;100.00;98324.34;5082798;28;20230;-80
2022/12/24 01:27:51;;;;;;;9.33;2.10;;;;;;;10.74;100.00;98330.72;5077287;28;20227;-80
2022/12/24 01:30:20;;;;;;;10.03;2.63;;;;;;;10.64;100.00;98340.34;5029386;28;20198;-80
2022/12/24 01:32:48;;;;;;;9.60;2.30;;;;;;;10.67;100.00;98342.75;4990967;28;20195;-80
2022/12/24 01:35:17;;;;;;;11.03;2.13;;;;;;;10.73;100.00;98345.78;4935652;29;20218;-81
2022/12/24 01:37:46;;;;;;;9.53;2.43;;;;;;;10.50;100.00;98358.13;4878944;29;20203;-80
2022/12/24 01:43:27;;;;;;;6.30;2.20;;;;;;;10.41;100.00;98348.25;4879186;29;20211;-80
2022/12/24 01:45:57;;;;;;;12.83;2.20;;;;;;;10.43;100.00;98366.69;4876333;29;20271;-80
2022/12/24 01:48:37;;;;;;;7.43;2.23;;;;;;;10.48;100.00;98367.16;4879219;29;20198;-80
2022/12/24 01:51:13;;;;;;;9.97;2.23;;;;;;;10.55;100.00;98366.56;4878141;29;20247;-80
2022/12/24 01:53:44;;;;;;;11.30;2.23;;;;;;;10.47;100.00;98376.91;4910108;29;20677;-80
2022/12/24 01:56:21;;;;;;;11.90;2.13;;;;;;;10.47;100.00;98379.56;5008569;28;20214;-80
2022/12/24 01:58:55;;;;;;;10.40;2.37;;;;;;;10.56;100.00;98381.50;5073818;28;20249;-79
2022/12/24 02:01:27;;;;;;;15.90;2.67;;;;;;;10.40;100.00;98385.41;5072088;28;20513;-80
2022/12/24 02:04:00;;;;;;;11.53;2.00;;;;;;;10.51;100.00;98381.00;5069813;28;20583;-79
2022/12/24 02:06:28;;;;;;;7.53;1.87;;;;;;;10.54;100.00;98377.28;5065820;28;20200;-79
2022/12/24 02:08:58;;;;;;;14.03;2.60;;;;;;;10.43;100.00;98369.31;5068129;28;20215;-79
2022/12/24 02:11:32;;;;;;;13.20;2.50;;;;;;;10.34;100.00;98377.97;5063110;28;20200;-79
2022/12/24 02:14:04;;;;;;;14.53;2.70;;;;;;;10.22;100.00;98377.91;5004543;28;20253;-79
2022/12/24 02:16:42;;;;;;;9.00;2.47;;;;;;;10.31;100.00;98389.59;5006511;28;20229;-79
2022/12/24 02:19:55;;;;;;;10.60;2.37;;;;;;;10.35;100.00;98390.22;5007791;28;20281;-79
2022/12/24 02:22:41;;;;;;;12.90;2.60;;;;;;;10.40;100.00;98394.19;5003819;28;20198;-80
2022/12/24 02:25:48;;;;;;;9.17;2.43;;;;;;;10.48;100.00;98389.19;5009730;28;20203;-80
2022/12/24 02:28:35;;;;;;;16.10;3.00;;;;;;;10.47;100.00;98398.09;5008553;28;20229;-80
2022/12/24 02:31:10;;;;;;;11.30;2.43;;;;;;;10.53;100.00;98392.34;5008751;28;20194;-80
2022/12/24 02:33:46;;;;;;;8.97;2.20;;;;;;;10.50;100.00;98391.69;5046616;28;20703;-80
2022/12/24 02:36:24;;;;;;;14.30;2.30;;;;;;;10.56;100.00;98394.75;5042698;28;20223;-80
2022/12/24 02:39:01;;;;;;;15.83;2.67;;;;;;;10.58;100.00;98398.09;5046075;28;20196;-79
2022/12/24 02:44:23;;;;;;;14.03;2.77;;;;;;;10.50;100.00;98400.50;4978362;28;20215;-80
2022/12/24 02:46:57;;;;;;;10.10;2.07;;;;;;;10.48;100.00;98404.22;5001425;28;20198;-80
2022/12/24 02:49:26;;;;;;;12.07;2.13;;;;;;;10.45;100.00;98404.47;5008107;28;20206;-80
2022/12/24 02:51:55;;;;;;;14.40;2.63;;;;;;;10.44;100.00;98416.00;5009320;28;20195;-80
2022/12/24 02:54:23;;;;;;;13.70;2.57;;;;;;;10.46;100.00;98414.09;5006976;28;20200;-79
2022/12/24 02:57:09;;;;;;;12.53;2.40;;;;;;;10.51;100.00;98428.66;5007394;28;20226;-80
2022/12/24 02:59:58;;;;;;;14.07;2.70;;;;;;;10.49;100.00;98435.03;4975667;28;20198;-80
2022/12/24 03:02:45;;;;;;;10.93;2.20;;;;;;;10.46;100.00;98427.31;5007386;28;20194;-80
2022/12/24 03:05:22;;;;;;;13.87;2.50;;;;;;;10.57;100.00;98436.13;4927072;29;20204;-80
2022/12/24 03:08:01;;;;;;;10.80;2.20;;;;;;;10.54;100.00;98441.69;4941301;28;20197;-80
2022/12/24 03:10:37;;;;;;;10.70;2.40;;;;;;;10.56;100.00;98449.50;4992087;28;20191;-80
2022/12/24 03:13:10;;;;;;;11.60;2.20;;;;;;;10.55;100.00;98450.47;4954694;28;20199;-79
2022/12/24 03:15:40;;;;;;;14.20;2.67;;;;;;;10.58;100.00;98458.16;4988977;28;20207;-80
2022/12/24 03:18:21;;;;;;;11.63;2.37;;;;;;;10.61;100.00;98468.53;4991670;28;20219;-80
2022/12/24 03:20:54;;;;;;;11.63;2.70;;;;;;;10.75;100.00;98472.78;4914910;29;20197;-80
2022/12/24 03:23:23;;;;;;;12.13;2.63;;;;;;;10.58;100.00;98474.06;4953369;28;20198;-80
2022/12/24 03:25:52;;;;;;;10.63;2.50;;;;;;;10.47;100.00;98471.38;4991792;28;20187;-80
2022/12/24 03:28:26;;;;;;;10.50;2.97;;;;;;;10.40;100.00;98467.47;4982836;28;20269;-79
2022/12/24 03:30:54;;;;;;;11.63;2.20;;;;;;;10.38;100.00;98478.19;4982717;28;20586;-80
2022/12/24 03:33:26;;;;;;;14.80;2.60;;;;;;;10.40;100.00;98473.63;4983676;28;20199;-80
2022/12/24 03:35:55;;;;;;;8.77;2.50;;;;;;;10.38;100.00;98478.19;4986754;28;20211;-80
2022/12/24 03:38:25;;;;;;;11.43;2.70;;;;;;;10.29;100.00;98476.22;4984971;28;20273;-80
2022/12/24 03:40:53;;;;;;;11.40;2.43;;;;;;;10.32;100.00;98468.88;4988938;28;20210;-80
2022/12/24 03:43:21;;;;;;;14.40;3.10;;;;;;;10.22;100.00;98474.97;4983131;28;20206;-80
2022/12/24 03:45:50;;;;;;;8.80;2.27;;;;;;;10.29;100.00;98471.78;5039163;28;20211;-80
2022/12/24 03:48:19;;;;;;;17.13;3.30;;;;;;;10.25;100.00;98477.41;5066910;28;20200;-80
2022/12/24 03:50:49;;;;;;;13.97;3.00;;;;;;;10.20;100.00;98490.94;5067721;28;20271;-80
2022/12/24 03:53:17;;;;;;;15.57;2.90;;;;;;;10.25;100.00;98483.56;5069906;28;20199;-80
2022/12/24 03:55:47;;;;;;;12.37;2.70;;;;;;;10.25;100.00;98486.19;5061791;28;20255;-79
2022/12/24 03:58:16;;;;;;;10.40;3.00;;;;;;;10.27;100.00;98494.88;5063140;28;20216;-79
2022/12/24 04:00:45;;;;;;;14.23;2.63;;;;;;;10.30;100.00;98494.63;5069227;28;20200;-79
2022/12/24 04:03:13;;;;;;;8.73;2.23;;;;;;;10.27;100.00;98492.22;5069878;28;20185;-79
2022/12/24 04:05:42;;;;;;;12.57;2.43;;;;;;;10.27;100.00;98499.31;5033723;28;20218;-80
2022/12/24 04:08:12;;;;;;;15.50;3.00;;;;;;;10.24;100.00;98505.69;5065733;28;20197;-80
2022/12/24 04:10:43;;;;;;;13.13;2.80;;;;;;;10.23;100.00;98508.41;5034167;28;20208;-80
2022/12/24 04:13:14;;;;;;;12.23;2.60;;;;;;;10.17;100.00;98517.63;5068518;28;20188;-80
2022/12/24 04:15:44;;;;;;;13.80;3.00;;;;;;;10.19;100.00;98523.66;5072587;28;20200;-79
2022/12/24 04:18:12;;;;;;;13.37;2.43;;;;;;;10.19;100.00;98526.31;5064356;28;20220;-80
2022/12/24 04:20:41;;;;;;;13.43;2.60;;;;;;;10.17;100.00;98530.88;5026852;28;20224;-79
2022/12/24 04:23:11;;;;;;;14.30;3.33;;;;;;;10.23;100.00;98533.13;5030108;28;20209;-79
2022/12/24 04:25:42;;;;;;;9.43;2.50;;;;;;;10.20;100.00;98535.09;4968927;28;20293;-80
2022/12/24 04:28:11;;;;;;;11.73;2.80;;;;;;;10.23;100.00;98537.53;4965027;28;20259;-80
2022/12/24 04:30:40;;;;;;;12.10;2.73;;;;;;;10.19;100.00;98544.81;4974145;28;20697;-79
2022/12/24 04:33:09;;;;;;;16.00;2.87;;;;;;;10.10;100.00;98542.84;4967801;28;20211;-80
2022/12/24 04:35:41;;;;;;;13.30;2.63;;;;;;;10.14;100.00;98548.78;4914858;29;20226;-79
2022/12/24 04:38:14;;;;;;;11.67;2.87;;;;;;;10.12;100.00;98545.38;4905445;29;20250;-80
2022/12/24 04:40:42;;;;;;;14.27;2.80;;;;;;;10.17;100.00;98544.09;4930590;29;20665;-80
2022/12/24 04:43:11;;;;;;;15.40;3.27;;;;;;;10.21;100.00;98542.06;4881090;29;20210;-80
2022/12/24 04:45:41;;;;;;;11.23;2.90;;;;;;;10.20;100.00;98548.31;4884363;29;20194;-80
2022/12/24 04:48:10;;;;;;;12.77;2.90;;;;;;;10.18;100.00;98545.78;4897459;29;20254;-80
2022/12/24 04:50:40;;;;;;;17.53;3.47;;;;;;;10.17;100.00;98554.69;4877132;29;20683;-79
2022/12/24 04:53:08;;;;;;;15.57;3.20;;;;;;;10.16;100.00;98542.41;4889558;29;20209;-80
2022/12/24 04:55:39;;;;;;;15.00;3.27;;;;;;;10.09;100.00;98551.75;4931626;29;20732;-80
2022/12/24 04:58:07;;;;;;;13.93;2.77;;;;;;;10.16;100.00;98565.38;4931671;29;20245;-79
2022/12/24 05:00:36;;;;;;;15.57;3.10;;;;;;;10.12;100.00;98564.75;4943600;28;20203;-80
2022/12/24 05:03:07;;;;;;;17.07;2.57;;;;;;;10.11;100.00;98580.72;5009798;28;20256;-80
2022/12/24 05:05:36;;;;;;;12.93;2.93;;;;;;;10.00;100.00;98576.19;5006592;28;20209;-80
2022/12/24 05:08:05;;;;;;;11.53;2.63;;;;;;;9.83;100.00;98571.25;4942960;28;20230;-80
2022/12/24 05:10:34;;;;;;;16.90;3.67;;;;;;;9.80;100.00;98568.84;4989021;28;20273;-81
2022/12/24 05:13:05;;;;;;;20.00;3.10;;;;;;;9.74;100.00;98578.88;4985280;28;20242;-81
2022/12/24 05:15:33;;;;;;;14.33;2.77;;;;;;;9.83;100.00;98595.06;4990925;28;20219;-80
2022/12/24 05:18:01;;;;;;;16.30;2.97;;;;;;;9.69;100.00;98598.69;4990123;28;20215;-80
2022/12/24 05:20:31;;;;;;;16.57;3.20;;;;;;;9.84;100.00;98608.16;4988872;28;20266;-80
2022/12/24 05:28:34;;;;;;;13.33;2.90;;;;;;;9.61;100.00;98614.22;5020609;28;1428705;-80
2022/12/24 05:31:03;;;;;;;15.20;3.50;;;;;;;9.44;100.00;98608.28;5069458;28;20237;-80
2022/12/24 05:33:33;;;;;;;16.93;3.33;;;;;;;9.39;100.00;98609.56;5067631;28;20192;-80
2022/12/24 05:36:03;;;;;;;14.53;3.40;;;;;;;9.53;100.00;98624.47;5066362;28;20647;-80
2022/12/24 05:38:32;;;;;;;15.50;2.83;;;;;;;9.54;100.00;98621.72;5072396;28;20212;-80
2022/12/24 05:41:02;;;;;;;13.80;3.10;;;;;;;9.54;100.00;98626.16;5070484;28;20197;-80
2022/12/24 05:43:30;;;;;;;17.50;3.43;;;;;;;9.69;100.00;98630.41;5066624;28;20204;-80
2022/12/24 05:46:02;;;;;;;13.80;3.07;;;;;;;9.72;100.00;98638.97;5067283;28;20212;-80
2022/12/24 05:48:31;;;;;;;13.33;2.90;;;;;;;9.87;100.00;98638.88;5071037;28;20242;-80
2022/12/24 05:51:00;;;;;;;16.80;3.43;;;;;;;9.64;100.00;98637.78;5068284;28;20192;-80
2022/12/24 05:53:29;;;;;;;15.57;3.30;;;;;;;9.57;100.00;98626.81;5071940;28;20274;-80
2022/12/24 05:56:03;;;;;;;18.47;3.43;;;;;;;9.38;100.00;98627.22;5068740;28;20639;-80
2022/12/24 05:58:33;;;;;;;20.57;3.40;;;;;;;9.42;100.00;98626.03;5061725;28;20216;-80
2022/12/24 06:01:05;;;;;;;17.57;4.13;;;;;;;9.62;100.00;98635.25;5067356;28;20242;-81
2022/12/24 06:03:36;;;;;;;13.97;3.60;;;;;;;9.50;100.00;98637.91;5066178;28;20208;-81
2022/12/24 06:06:08;;;;;;;18.63;3.57;;;;;;;9.58;100.00;98644.38;5071182;28;20197;-81
2022/12/24 06:08:38;;;;;;;13.43;3.43;;;;;;;9.53;100.00;98651.75;5062814;28;20203;-81
2022/12/24 06:11:10;;;;;;;14.50;3.20;;;;;;;9.52;100.00;98668.56;5073400;28;20204;-80
2022/12/24 06:13:39;;;;;;;11.57;2.80;;;;;;;9.22;100.00;98675.91;5073917;28;20204;-81
2022/12/24 06:16:12;;;;;;;16.77;3.37;;;;;;;9.20;100.00;98665.44;5078788;28;20249;-80
2022/12/24 06:18:41;;;;;;;13.43;2.60;;;;;;;9.33;100.00;98689.25;5087271;28;20223;-80
2022/12/24 06:21:12;;;;;;;7.27;1.57;;;;;;;9.46;100.00;98684.84;5065783;28;20276;-80
2022/12/24 06:23:44;;;;;;;9.70;1.90;;;;;;;9.55;100.00;98692.13;5016484;28;20651;-80
2022/12/24 06:26:15;;;;;;;8.13;2.10;;;;;;;9.62;100.00;98682.84;5070056;28;20188;-80
2022/12/24 06:28:44;;;;;;;7.77;1.93;;;;;;;9.57;100.00;98690.28;5063896;28;20224;-81
2022/12/24 06:31:17;;;;;;;7.17;1.67;;;;;;;9.51;100.00;98676.59;5065039;28;20238;-80
2022/12/24 06:33:45;;;;;;;5.23;1.30;;;;;;;9.42;100.00;98678.06;5068762;28;20212;-80
2022/12/24 06:36:21;;;;;;;6.57;1.60;;;;;;;9.45;100.00;98667.28;5064525;28;20226;-80
2022/12/24 06:38:53;;;;;;;7.00;1.50;;;;;;;9.16;100.00;98677.16;5063040;28;20212;-80
2022/12/24 06:41:22;;;;;;;6.53;1.63;;;;;;;9.24;100.00;98671.34;5069771;28;20640;-80
2022/12/24 06:43:52;;;;;;;7.30;1.40;;;;;;;9.18;100.00;98668.19;5069955;28;20305;-80
2022/12/24 06:46:23;;;;;;;4.43;1.30;;;;;;;9.22;100.00;98670.63;5067684;28;20223;-80
2022/12/24 06:48:54;;;;;;;4.97;1.03;;;;;;;9.21;100.00;98653.91;5065373;28;20276;-80
2022/12/24 06:51:22;;;;;;;6.37;1.17;;;;;;;9.10;100.00;98662.56;5069771;28;20210;-80
2022/12/24 06:53:51;;;;;;;5.40;1.40;;;;;;;9.13;100.00;98672.06;5046310;28;20185;-80
2022/12/24 06:56:21;;;;;;;6.07;1.30;;;;;;;9.07;100.00;98672.47;5067738;28;20184;-80
2022/12/24 06:58:50;;;;;;;7.13;1.30;;;;;;;9.18;100.00;98664.69;4989147;28;20226;-80
2022/12/24 07:01:22;;;;;;;5.87;1.23;;;;;;;9.28;100.00;98683.44;4992309;28;20199;-80
2022/12/24 07:03:53;;;;;;;7.67;1.47;;;;;;;9.16;100.00;98674.50;4989316;28;20203;-80
2022/12/24 07:06:25;;;;;;;7.73;1.33;;;;;;;9.09;100.00;98686.44;4985237;28;20191;-80
2022/12/24 07:08:54;;;;;;;6.07;1.30;;;;;;;9.19;100.00;98684.88;4989723;28;20655;-80
2022/12/24 07:11:25;;;;;;;5.30;1.40;;;;;;;8.88;100.00;98692.19;4983403;28;20207;-80
2022/12/24 07:13:55;;;;;;;3.97;1.40;;;;;;;8.85;100.00;98687.06;4991452;28;20191;-80
2022/12/24 07:16:24;;;;;;;6.23;1.10;;;;;;;8.68;100.00;98700.50;4987960;28;20207;-81
2022/12/24 07:18:54;;;;;;;4.27;1.37;;;;;;;8.72;100.00;98715.22;4987233;28;20215;-80
2022/12/24 07:21:22;;;;;;;6.70;1.30;;;;;;;8.68;100.00;98716.34;4985802;28;20261;-80
2022/12/24 07:23:51;;;;;;;9.90;1.60;;;;;;;8.76;100.00;98724.63;5036917;28;20192;-80
2022/12/24 07:26:20;;;;;;;7.37;1.70;;;;;;;8.84;100.00;98717.06;5067127;28;20204;-79
2022/12/24 07:28:48;;;;;;;8.77;1.60;;;;;;;8.75;100.00;98730.84;4984451;28;20223;-80
2022/12/24 07:31:17;;;;;;;5.57;1.77;;;;;;;8.82;100.00;98740.09;4984529;28;20195;-80
2022/12/24 07:33:47;;;;;;;7.00;2.37;;;;;;;8.79;100.00;98742.94;4989232;28;20230;-80
2022/12/24 07:36:20;;;;;;;5.63;2.10;;;;;;;8.68;100.00;98750.66;4981535;28;20199;-79
2022/12/24 07:38:48;;;;;;;6.70;2.07;;;;;;;8.75;100.00;98756.41;4987845;28;20223;-80
2022/12/24 07:41:18;;;;;;;10.00;1.90;;;;;;;8.82;100.00;98752.44;4989300;28;20195;-80
2022/12/24 07:43:47;;;;;;;6.17;1.93;;;;;;;8.76;100.00;98758.97;4984028;28;20254;-80
2022/12/24 07:46:15;;;;;;;8.63;2.20;;;;;;;8.82;100.00;98763.00;4997938;28;20197;-81
2022/12/24 07:48:45;;;;;;;8.37;2.60;;;;;;;8.92;100.00;98765.91;5052722;28;20197;-81
2022/12/24 07:51:13;;;;;;;10.90;2.60;;;;;;;8.93;100.00;98773.75;5044872;28;20664;-81
2022/12/24 07:53:46;;;;;;;13.60;3.70;;;;;;;8.92;100.00;98776.47;5027570;28;20288;-81
2022/12/24 07:56:15;;;;;;;10.80;3.40;;;;;;;8.90;100.00;98792.44;5021507;28;20206;-81
2022/12/24 07:58:44;;;;;;;11.63;3.40;;;;;;;8.83;100.00;98802.53;5020964;28;20193;-81
2022/12/24 08:01:12;;;;;;;13.50;3.10;;;;;;;8.91;100.00;98802.06;5022940;28;20338;-80
2022/12/24 08:03:40;;;;;;;15.90;6.60;;;;;;;8.97;100.00;98793.72;5019550;28;20367;-80
2022/12/24 08:06:09;;;;;;;13.03;3.40;;;;;;;9.01;100.00;98805.81;5025381;28;20296;-81
2022/12/24 08:08:38;;;;;;;16.17;3.73;;;;;;;8.99;100.00;98814.78;5026478;28;20711;-80
2022/12/24 08:11:13;;;;;;;15.33;4.63;;;;;;;9.00;100.00;98819.13;5025805;28;20205;-80
2022/12/24 08:13:42;;;;;;;13.77;5.20;;;;;;;9.09;100.00;98813.25;5007124;28;20186;-80
2022/12/24 08:16:10;;;;;;;13.07;5.60;;;;;;;9.16;100.00;98814.53;5005445;28;20206;-80
2022/12/24 08:18:39;;;;;;;22.63;10.00;;;;;;;9.23;100.00;98822.94;5000246;28;20262;-81
2022/12/24 08:21:10;;;;;;;29.43;18.30;;;;;;;9.23;100.00;98828.22;4977565;28;20190;-80
2022/12/24 08:23:39;;;;;;;11.93;4.80;;;;;;;9.34;100.00;98817.78;5016594;28;20190;-80
2022/12/24 08:26:14;;;;;;;34.60;24.00;;;;;;;9.34;100.00;98823.94;5009994;28;20205;-80
2022/12/24 08:28:43;;;;;;;19.73;6.20;;;;;;;9.24;100.00;98825.47;4997336;28;20234;-80
2022/12/24 08:31:14;;;;;;;13.87;9.10;;;;;;;9.29;100.00;98820.75;5010001;28;20251;-80
2022/12/24 08:33:43;;;;;;;29.83;18.67;;;;;;;9.36;100.00;98821.19;5049955;28;20222;-81
2022/12/24 08:36:13;;;;;;;20.77;7.60;;;;;;;9.33;100.00;98829.31;5048418;28;20197;-81
2022/12/24 08:38:42;;;;;;;15.20;4.57;;;;;;;9.28;100.00;98834.91;5052895;28;20205;-81
2022/12/24 08:41:13;;;;;;;19.47;4.47;;;;;;;9.32;100.00;98836.41;5049794;28;20683;-81
2022/12/24 08:43:41;;;;;;;15.33;4.63;;;;;;;9.26;100.00;98834.13;5045358;28;20196;-81
2022/12/24 08:46:10;;;;;;;11.97;3.70;;;;;;;9.39;100.00;98839.50;5052819;28;20197;-80
2022/12/24 08:48:39;;;;;;;10.40;3.10;;;;;;;9.58;100.00;98852.38;5053254;28;20194;-80
2022/12/24 08:51:11;;;;;;;11.73;2.80;;;;;;;9.68;100.00;98850.84;5048712;28;20193;-81
2022/12/24 08:53:42;;;;;;;20.33;7.73;;;;;;;9.59;100.00;98841.72;5046353;28;20200;-80
2022/12/24 08:56:15;;;;;;;13.50;4.80;;;;;;;9.56;100.00;98841.91;5050012;28;20185;-80
2022/12/24 08:58:43;;;;;;;20.90;4.97;;;;;;;9.66;100.00;98852.75;5049404;28;20262;-80
2022/12/24 09:01:15;;;;;;;17.03;5.43;;;;;;;9.71;100.00;98850.63;5044215;28;20699;-80
2022/12/24 09:03:44;;;;;;;21.10;6.67;;;;;;;9.77;100.00;98863.47;5052062;28;20189;-81
2022/12/24 09:08:59;;;;;;;16.70;4.33;;;;;;;9.72;100.00;98862.91;5050403;28;20243;-81
2022/12/24 09:11:29;;;;;;;21.97;4.87;;;;;;;9.73;100.00;98870.72;5045796;28;20224;-81
2022/12/24 09:13:57;;;;;;;21.50;4.50;;;;;;;9.70;100.00;98870.94;5052123;28;20192;-81
2022/12/24 09:16:25;;;;;;;16.73;4.70;;;;;;;9.72;100.00;98889.34;5048591;28;20253;-80
2022/12/24 09:18:54;;;;;;;14.27;3.60;;;;;;;9.74;100.00;98895.38;5048513;28;20323;-80
2022/12/24 09:21:23;;;;;;;19.67;4.60;;;;;;;9.81;100.00;98893.19;5052483;28;20228;-81
2022/12/24 09:23:51;;;;;;;19.53;3.97;;;;;;;9.85;100.00;98898.19;5055212;28;20200;-81
2022/12/24 09:26:23;;;;;;;20.23;3.50;;;;;;;9.94;100.00;98902.00;5050736;28;20220;-80
2022/12/24 09:28:54;;;;;;;14.17;3.90;;;;;;;9.98;100.00;98890.31;5047871;28;20283;-80
2022/12/24 09:31:22;;;;;;;19.27;4.20;;;;;;;10.08;100.00;98901.97;5054092;28;20209;-81
2022/12/24 09:33:51;;;;;;;14.63;3.70;;;;;;;10.17;100.00;98895.22;5055001;28;20720;-81
2022/12/24 09:36:21;;;;;;;17.87;3.63;;;;;;;10.16;100.00;98901.47;5046978;28;20189;-81
2022/12/24 09:38:52;;;;;;;13.17;2.83;;;;;;;10.32;100.00;98887.13;5049547;28;20196;-81
2022/12/24 09:41:35;;;;;;;16.57;4.63;;;;;;;10.31;100.00;98892.53;5018391;28;20688;-81
2022/12/24 09:44:20;;;;;;;19.07;4.17;;;;;;;10.29;100.00;98887.34;5052574;28;20287;-82
2022/12/24 09:46:53;;;;;;;21.97;7.07;;;;;;;10.45;100.00;98888.97;5054969;28;20228;-81
2022/12/24 09:49:31;;;;;;;36.07;18.80;;;;;;;10.44;100.00;98884.63;5020230;28;20200;-81
2022/12/24 09:52:05;;;;;;;15.30;6.33;;;;;;;10.51;100.00;98878.78;5052387;28;20193;-81
2022/12/24 09:54:38;;;;;;;23.57;7.73;;;;;;;10.49;100.00;98885.97;5047867;28;20201;-80
2022/12/24 09:57:19;;;;;;;23.67;5.80;;;;;;;10.49;100.00;98885.97;5052730;28;20282;-80
2022/12/24 09:59:50;;;;;;;18.93;3.77;;;;;;;10.57;100.00;98891.63;5047707;28;20203;-80
2022/12/24 10:02:20;;;;;;;18.00;5.70;;;;;;;10.50;100.00;98892.13;5032776;28;20202;-81
2022/12/24 10:04:49;;;;;;;16.00;4.50;;;;;;;10.38;100.00;98903.56;5024195;28;20245;-80
2022/12/24 10:07:28;;;;;;;13.17;3.30;;;;;;;10.42;100.00;98899.72;5026601;28;20205;-80
2022/12/24 10:10:08;;;;;;;18.57;5.00;;;;;;;10.45;100.00;98905.69;4969992;28;20200;-81
2022/12/24 10:12:46;;;;;;;17.23;4.47;;;;;;;10.53;100.00;98907.84;4966258;28;20226;-80
2022/12/24 10:15:26;;;;;;;14.03;3.57;;;;;;;10.68;100.00;98903.28;4965066;28;20219;-81
2022/12/24 10:18:13;;;;;;;16.43;4.07;;;;;;;10.66;100.00;98910.47;4967096;28;20198;-81
2022/12/24 10:20:46;;;;;;;21.20;5.90;;;;;;;10.69;100.00;98915.56;4920529;29;20225;-80
2022/12/24 10:23:24;;;;;;;16.73;3.63;;;;;;;10.87;100.00;98917.78;4928901;29;20201;-81
2022/12/24 10:26:03;;;;;;;16.70;3.50;;;;;;;10.90;100.00;98911.44;4932239;29;20189;-81
2022/12/24 10:28:44;;;;;;;15.43;5.57;;;;;;;11.06;100.00;98885.56;4969960;28;20226;-80
2022/12/24 10:31:14;;;;;;;12.00;3.47;;;;;;;11.38;100.00;98891.22;4991210;28;20190;-80
2022/12/24 10:33:45;;;;;;;19.03;7.17;;;;;;;11.30;100.00;98890.09;4985469;28;20234;-80
2022/12/24 10:36:18;;;;;;;12.50;3.27;;;;;;;11.56;100.00;98885.56;4990292;28;20199;-80
2022/12/24 10:38:46;;;;;;;18.77;3.50;;;;;;;11.57;100.00;98882.78;5018286;28;20197;-81
2022/12/24 10:41:16;;;;;;;16.53;3.37;;;;;;;11.73;100.00;98880.72;5049449;28;20228;-81
2022/12/24 10:43:49;;;;;;;10.93;2.80;;;;;;;11.66;100.00;98890.06;5053121;28;20196;-80
2022/12/24 10:46:26;;;;;;;13.67;3.00;;;;;;;11.42;100.00;98883.91;5051807;28;20201;-81
2022/12/24 10:49:00;;;;;;;16.67;3.33;;;;;;;11.33;100.00;98880.09;5007629;28;20202;-80
2022/12/24 10:51:37;;;;;;;13.07;2.70;;;;;;;11.49;100.00;98879.88;5008832;28;20205;-80
2022/12/24 10:54:14;;;;;;;11.20;2.80;;;;;;;11.43;100.00;98889.09;5005403;28;20810;-80
2022/12/24 10:56:58;;;;;;;10.37;2.60;;;;;;;11.36;100.00;98890.50;4952579;29;20282;-80
2022/12/24 10:59:31;;;;;;;15.13;3.27;;;;;;;11.30;100.00;98875.03;4949553;28;20201;-80
2022/12/24 11:02:24;;;;;;;12.07;2.83;;;;;;;11.27;100.00;98869.94;4946124;29;20248;-80
2022/12/24 11:04:54;;;;;;;10.47;2.90;;;;;;;11.40;100.00;98872.56;4950051;29;20199;-80
2022/12/24 11:07:24;;;;;;;15.90;3.43;;;;;;;11.26;100.00;98876.19;4971626;28;20203;-80
2022/12/24 11:09:58;;;;;;;12.57;2.90;;;;;;;11.26;100.00;98876.19;4993532;28;20699;-80
2022/12/24 11:12:30;;;;;;;14.40;2.77;;;;;;;11.24;100.00;98878.13;5008714;28;20185;-79
2022/12/24 11:15:08;;;;;;;12.00;2.93;;;;;;;11.21;100.00;98874.84;5031837;28;20207;-80
2022/12/24 11:17:39;;;;;;;10.87;2.90;;;;;;;11.28;100.00;98874.28;4991969;28;20214;-80
2022/12/24 11:20:18;;;;;;;9.77;3.00;;;;;;;11.32;100.00;98880.22;4987864;28;20645;-80
2022/12/24 11:22:49;;;;;;;12.43;3.23;;;;;;;11.22;100.00;98880.03;4987227;28;20226;-80
2022/12/24 11:25:22;;;;;;;18.17;3.80;;;;;;;11.16;100.00;98876.00;4988172;28;20197;-80
2022/12/24 11:27:51;;;;;;;12.13;2.87;;;;;;;11.11;100.00;98882.59;4990821;28;20218;-80
2022/12/24 11:30:27;;;;;;;16.73;3.07;;;;;;;11.20;100.00;98876.66;4989176;28;20195;-80
2022/12/24 11:33:20;;;;;;;10.07;2.63;;;;;;;11.25;100.00;98869.19;4991397;28;20203;-80
2022/12/24 11:35:55;;;;;;;14.03;2.90;;;;;;;11.22;100.00;98863.28;4987648;28;20203;-80
2022/12/24 11:38:26;;;;;;;16.63;4.13;;;;;;;11.19;100.00;98872.28;4986367;28;20206;-80
2022/12/24 11:41:06;;;;;;;13.57;2.70;;;;;;;11.20;100.00;98871.34;4966630;28;20646;-79
2022/12/24 11:43:45;;;;;;;13.23;2.80;;;;;;;11.14;100.00;98871.78;4990631;28;20199;-79
2022/12/24 11:46:37;;;;;;;12.03;3.07;;;;;;;11.15;100.00;98878.78;4985818;28;20211;-80
2022/12/24 11:49:26;;;;;;;13.40;2.70;;;;;;;11.23;100.00;98865.81;4987997;28;20294;-79
2022/12/24 11:52:44;;;;;;;9.90;2.77;;;;;;;11.26;100.00;98873.53;4988301;28;20292;-79
2022/12/24 11:55:19;;;;;;;10.63;2.50;;;;;;;11.49;100.00;98869.25;4990302;28;20195;-79
2022/12/24 11:57:55;;;;;;;14.30;3.30;;;;;;;11.46;100.00;98880.06;4989020;28;20214;-80
2022/12/24 12:00:25;;;;;;;11.87;2.40;;;;;;;11.62;100.00;98870.06;5028461;28;20668;-79